sensor_id;sensor_type;location;lat;lon;timestamp;pressure;altitude;pressure_sealevel;temperature;humidity
46710;BME280;32442;51.514;-0.178;2023-03-25T00:02:08;99691.28;;;20.80;42.22
46710;BME280;32442;51.514;-0.178;2023-03-25T00:04:35;99687.63;;;20.79;42.08
46710;BME280;32442;51.514;-0.178;2023-03-25T00:07:03;99695.56;;;20.77;41.82
46710;BME280;32442;51.514;-0.178;2023-03-25T00:09:30;99696.72;;;20.76;41.86
46710;BME280;32442;51.514;-0.178;2023-03-25T00:11:57;99690.28;;;20.76;42.04
46710;BME280;32442;51.514;-0.178;2023-03-25T00:14:24;99694.28;;;20.75;42.00
46710;BME280;32442;51.514;-0.178;2023-03-25T00:16:51;99699.06;;;20.74;42.33
46710;BME280;32442;51.514;-0.178;2023-03-25T00:19:19;99708.19;;;20.71;42.12
46710;BME280;32442;51.514;-0.178;2023-03-25T00:21:47;99705.84;;;20.73;42.32
46710;BME280;32442;51.514;-0.178;2023-03-25T00:24:16;99682.09;;;20.71;42.24
46710;BME280;32442;51.514;-0.178;2023-03-25T00:26:44;99689.69;;;20.70;42.66
46710;BME280;32442;51.514;-0.178;2023-03-25T00:29:12;99690.50;;;20.71;42.93
46710;BME280;32442;51.514;-0.178;2023-03-25T00:31:39;99702.88;;;20.70;42.79
46710;BME280;32442;51.514;-0.178;2023-03-25T00:34:09;99702.41;;;20.68;42.83
46710;BME280;32442;51.514;-0.178;2023-03-25T00:36:40;99697.59;;;20.68;42.83
46710;BME280;32442;51.514;-0.178;2023-03-25T00:39:09;99692.00;;;20.68;42.82
46710;BME280;32442;51.514;-0.178;2023-03-25T00:41:36;99678.31;;;20.67;43.13
46710;BME280;32442;51.514;-0.178;2023-03-25T00:44:07;99692.34;;;20.67;42.84
46710;BME280;32442;51.514;-0.178;2023-03-25T00:46:35;99683.78;;;20.63;43.34
46710;BME280;32442;51.514;-0.178;2023-03-25T00:49:04;99680.97;;;20.63;43.11
46710;BME280;32442;51.514;-0.178;2023-03-25T00:51:31;99677.31;;;20.63;42.94
46710;BME280;32442;51.514;-0.178;2023-03-25T00:53:59;99682.94;;;20.63;43.23
46710;BME280;32442;51.514;-0.178;2023-03-25T00:56:26;99688.78;;;20.58;43.10
46710;BME280;32442;51.514;-0.178;2023-03-25T00:58:54;99686.78;;;20.58;42.97
46710;BME280;32442;51.514;-0.178;2023-03-25T01:01:22;99686.31;;;20.56;43.45
46710;BME280;32442;51.514;-0.178;2023-03-25T01:03:53;99697.03;;;20.54;42.98
46710;BME280;32442;51.514;-0.178;2023-03-25T01:06:24;99688.59;;;20.54;43.29
46710;BME280;32442;51.514;-0.178;2023-03-25T01:08:55;99690.13;;;20.52;43.15
46710;BME280;32442;51.514;-0.178;2023-03-25T01:11:24;99700.03;;;20.49;42.96
46710;BME280;32442;51.514;-0.178;2023-03-25T01:13:53;99699.22;;;20.49;43.38
46710;BME280;32442;51.514;-0.178;2023-03-25T01:16:18;99694.78;;;20.48;43.64
46710;BME280;32442;51.514;-0.178;2023-03-25T01:18:45;99695.59;;;20.48;43.61
46710;BME280;32442;51.514;-0.178;2023-03-25T01:21:12;99693.94;;;20.47;43.55
46710;BME280;32442;51.514;-0.178;2023-03-25T01:23:39;99689.34;;;20.42;43.23
46710;BME280;32442;51.514;-0.178;2023-03-25T01:26:09;99695.28;;;20.41;43.30
46710;BME280;32442;51.514;-0.178;2023-03-25T01:28:38;99687.69;;;20.41;43.76
46710;BME280;32442;51.514;-0.178;2023-03-25T01:31:06;99690.84;;;20.40;43.76
46710;BME280;32442;51.514;-0.178;2023-03-25T01:33:34;99690.03;;;20.39;44.07
46710;BME280;32442;51.514;-0.178;2023-03-25T01:36:01;99692.03;;;20.39;43.85
46710;BME280;32442;51.514;-0.178;2023-03-25T01:38:29;99692.66;;;20.36;44.00
46710;BME280;32442;51.514;-0.178;2023-03-25T01:40:56;99695.00;;;20.34;43.82
46710;BME280;32442;51.514;-0.178;2023-03-25T01:43:23;99686.47;;;20.30;43.83
46710;BME280;32442;51.514;-0.178;2023-03-25T01:45:50;99691.88;;;20.27;43.98
46710;BME280;32442;51.514;-0.178;2023-03-25T01:50:46;99685.28;;;20.23;43.84
46710;BME280;32442;51.514;-0.178;2023-03-25T01:53:14;99677.56;;;20.20;44.05
46710;BME280;32442;51.514;-0.178;2023-03-25T01:55:42;99681.19;;;20.20;43.93
46710;BME280;32442;51.514;-0.178;2023-03-25T01:58:11;99689.47;;;20.17;44.09
46710;BME280;32442;51.514;-0.178;2023-03-25T02:00:39;99688.81;;;20.11;43.86
46710;BME280;32442;51.514;-0.178;2023-03-25T02:03:10;99677.25;;;20.13;43.55
46710;BME280;32442;51.514;-0.178;2023-03-25T02:08:12;99680.91;;;20.05;43.69
46710;BME280;32442;51.514;-0.178;2023-03-25T02:13:08;99685.53;;;20.01;43.95
46710;BME280;32442;51.514;-0.178;2023-03-25T02:18:10;99684.25;;;19.98;43.88
46710;BME280;32442;51.514;-0.178;2023-03-25T02:48:14;99704.25;;;19.79;43.94
46710;BME280;32442;51.514;-0.178;2023-03-25T02:53:16;99702.94;;;19.77;43.94
46710;BME280;32442;51.514;-0.178;2023-03-25T02:55:46;99708.88;;;19.75;43.56
46710;BME280;32442;51.514;-0.178;2023-03-25T02:58:18;99702.78;;;19.73;43.60
46710;BME280;32442;51.514;-0.178;2023-03-25T03:00:48;99714.66;;;19.70;44.20
46710;BME280;32442;51.514;-0.178;2023-03-25T03:03:17;99706.72;;;19.72;43.99
46710;BME280;32442;51.514;-0.178;2023-03-25T03:05:45;99707.09;;;19.71;44.10
46710;BME280;32442;51.514;-0.178;2023-03-25T03:20:55;99731.31;;;19.58;44.17
46710;BME280;32442;51.514;-0.178;2023-03-25T03:23:27;99724.09;;;19.57;44.27
46710;BME280;32442;51.514;-0.178;2023-03-25T03:26:03;99721.47;;;19.52;44.36
46710;BME280;32442;51.514;-0.178;2023-03-25T03:28:39;99720.78;;;19.55;44.36
46710;BME280;32442;51.514;-0.178;2023-03-25T03:31:14;99736.47;;;19.47;44.29
46710;BME280;32442;51.514;-0.178;2023-03-25T03:33:46;99740.41;;;19.46;44.30
46710;BME280;32442;51.514;-0.178;2023-03-25T03:36:17;99725.72;;;19.49;43.87
46710;BME280;32442;51.514;-0.178;2023-03-25T03:38:46;99727.53;;;19.45;44.55
46710;BME280;32442;51.514;-0.178;2023-03-25T03:46:18;99730.34;;;19.45;44.32
46710;BME280;32442;51.514;-0.178;2023-03-25T03:48:48;99722.59;;;19.42;44.39
46710;BME280;32442;51.514;-0.178;2023-03-25T03:53:53;99734.78;;;19.38;44.76
46710;BME280;32442;51.514;-0.178;2023-03-25T03:58:57;99737.44;;;19.34;44.46
46710;BME280;32442;51.514;-0.178;2023-03-25T04:01:29;99732.97;;;19.33;44.48
46710;BME280;32442;51.514;-0.178;2023-03-25T04:04:02;99749.78;;;19.33;44.62
46710;BME280;32442;51.514;-0.178;2023-03-25T04:06:32;99744.84;;;19.30;44.25
46710;BME280;32442;51.514;-0.178;2023-03-25T04:09:04;99752.22;;;19.26;44.27
46710;BME280;32442;51.514;-0.178;2023-03-25T04:11:36;99762.44;;;19.31;44.25
46710;BME280;32442;51.514;-0.178;2023-03-25T04:14:06;99748.28;;;19.27;44.18
46710;BME280;32442;51.514;-0.178;2023-03-25T04:16:34;99760.81;;;19.30;44.53
46710;BME280;32442;51.514;-0.178;2023-03-25T04:19:03;99754.53;;;19.24;44.54
46710;BME280;32442;51.514;-0.178;2023-03-25T04:21:31;99753.72;;;19.24;44.15
46710;BME280;32442;51.514;-0.178;2023-03-25T04:23:59;99758.00;;;19.21;44.51
46710;BME280;32442;51.514;-0.178;2023-03-25T04:26:28;99761.13;;;19.20;44.25
46710;BME280;32442;51.514;-0.178;2023-03-25T04:28:58;99757.66;;;19.23;44.20
46710;BME280;32442;51.514;-0.178;2023-03-25T04:31:26;99763.63;;;19.21;44.24
46710;BME280;32442;51.514;-0.178;2023-03-25T04:33:56;99766.56;;;19.16;44.43
46710;BME280;32442;51.514;-0.178;2023-03-25T04:36:24;99772.50;;;19.15;44.59
46710;BME280;32442;51.514;-0.178;2023-03-25T04:38:54;99777.09;;;19.10;44.25
46710;BME280;32442;51.514;-0.178;2023-03-25T04:41:21;99774.78;;;19.13;44.53
46710;BME280;32442;51.514;-0.178;2023-03-25T04:43:48;99775.94;;;19.12;44.60
46710;BME280;32442;51.514;-0.178;2023-03-25T04:46:16;99781.03;;;19.09;44.41
46710;BME280;32442;51.514;-0.178;2023-03-25T04:48:44;99781.72;;;19.06;44.64
46710;BME280;32442;51.514;-0.178;2023-03-25T04:51:11;99785.34;;;19.07;44.46
46710;BME280;32442;51.514;-0.178;2023-03-25T04:53:39;99784.50;;;19.06;44.70
46710;BME280;32442;51.514;-0.178;2023-03-25T04:56:07;99782.03;;;19.05;44.49
46710;BME280;32442;51.514;-0.178;2023-03-25T04:58:38;99783.38;;;19.07;44.55
46710;BME280;32442;51.514;-0.178;2023-03-25T05:01:07;99785.50;;;19.02;44.67
46710;BME280;32442;51.514;-0.178;2023-03-25T05:03:36;99781.84;;;19.01;44.75
46710;BME280;32442;51.514;-0.178;2023-03-25T05:06:05;99788.59;;;19.00;44.84
46710;BME280;32442;51.514;-0.178;2023-03-25T05:08:33;99789.75;;;18.99;44.82
46710;BME280;32442;51.514;-0.178;2023-03-25T05:11:00;99798.81;;;18.96;45.02
46710;BME280;32442;51.514;-0.178;2023-03-25T05:13:28;99796.31;;;18.95;44.71
46710;BME280;32442;51.514;-0.178;2023-03-25T05:15:55;99797.50;;;18.94;44.86
46710;BME280;32442;51.514;-0.178;2023-03-25T05:18:23;99807.34;;;18.91;45.05
46710;BME280;32442;51.514;-0.178;2023-03-25T05:20:50;99803.88;;;18.94;44.77
46710;BME280;32442;51.514;-0.178;2023-03-25T05:23:16;99798.28;;;18.94;44.69
46710;BME280;32442;51.514;-0.178;2023-03-25T05:25:45;99802.28;;;18.93;44.86
46710;BME280;32442;51.514;-0.178;2023-03-25T05:28:13;99802.44;;;18.97;44.73
46710;BME280;32442;51.514;-0.178;2023-03-25T05:30:41;99807.66;;;18.90;44.99
46710;BME280;32442;51.514;-0.178;2023-03-25T05:33:11;99810.16;;;18.91;45.21
46710;BME280;32442;51.514;-0.178;2023-03-25T05:35:41;99824.81;;;18.88;44.89
46710;BME280;32442;51.514;-0.178;2023-03-25T05:38:09;99815.91;;;18.86;45.04
46710;BME280;32442;51.514;-0.178;2023-03-25T05:40:39;99815.25;;;18.89;45.11
46710;BME280;32442;51.514;-0.178;2023-03-25T05:43:06;99821.66;;;18.90;44.81
46710;BME280;32442;51.514;-0.178;2023-03-25T05:45:33;99830.41;;;18.88;44.67
46710;BME280;32442;51.514;-0.178;2023-03-25T05:48:02;99823.97;;;18.88;45.00
46710;BME280;32442;51.514;-0.178;2023-03-25T05:50:29;99837.28;;;18.82;45.00
46710;BME280;32442;51.514;-0.178;2023-03-25T05:52:57;99841.75;;;18.83;45.04
46710;BME280;32442;51.514;-0.178;2023-03-25T05:55:25;99832.00;;;18.81;44.88
46710;BME280;32442;51.514;-0.178;2023-03-25T05:57:53;99837.81;;;18.84;44.99
46710;BME280;32442;51.514;-0.178;2023-03-25T06:00:20;99835.63;;;18.81;44.86
46710;BME280;32442;51.514;-0.178;2023-03-25T06:02:49;99847.47;;;18.78;45.03
46710;BME280;32442;51.514;-0.178;2023-03-25T06:05:18;99841.88;;;18.78;44.83
46710;BME280;32442;51.514;-0.178;2023-03-25T06:07:49;99858.97;;;18.77;44.94
46710;BME280;32442;51.514;-0.178;2023-03-25T06:10:16;99862.63;;;18.77;44.66
46710;BME280;32442;51.514;-0.178;2023-03-25T06:12:44;99864.28;;;18.78;44.89
46710;BME280;32442;51.514;-0.178;2023-03-25T06:15:13;99863.13;;;18.79;44.84
46710;BME280;32442;51.514;-0.178;2023-03-25T06:17:41;99867.72;;;18.75;44.96
46710;BME280;32442;51.514;-0.178;2023-03-25T06:20:13;99878.09;;;18.75;44.92
46710;BME280;32442;51.514;-0.178;2023-03-25T06:22:42;99878.41;;;18.73;45.00
46710;BME280;32442;51.514;-0.178;2023-03-25T06:25:11;99875.59;;;18.73;44.61
46710;BME280;32442;51.514;-0.178;2023-03-25T06:27:39;99878.09;;;18.75;44.68
46710;BME280;32442;51.514;-0.178;2023-03-25T06:30:09;99882.34;;;18.72;44.76
46710;BME280;32442;51.514;-0.178;2023-03-25T06:32:37;99875.44;;;18.70;45.01
46710;BME280;32442;51.514;-0.178;2023-03-25T06:35:05;99877.41;;;18.69;44.89
46710;BME280;32442;51.514;-0.178;2023-03-25T06:37:33;99880.50;;;18.67;44.90
46710;BME280;32442;51.514;-0.178;2023-03-25T06:40:01;99872.47;;;18.66;45.19
46710;BME280;32442;51.514;-0.178;2023-03-25T06:42:29;99864.06;;;18.66;44.85
46710;BME280;32442;51.514;-0.178;2023-03-25T06:47:30;99871.63;;;18.65;45.20
46710;BME280;32442;51.514;-0.178;2023-03-25T06:50:00;99871.63;;;18.65;44.93
46710;BME280;32442;51.514;-0.178;2023-03-25T06:52:27;99866.88;;;18.66;45.12
46710;BME280;32442;51.514;-0.178;2023-03-25T06:54:55;99874.44;;;18.65;44.94
46710;BME280;32442;51.514;-0.178;2023-03-25T06:57:25;99885.09;;;18.63;45.07
46710;BME280;32442;51.514;-0.178;2023-03-25T06:59:53;99892.66;;;18.63;45.16
46710;BME280;32442;51.514;-0.178;2023-03-25T07:02:20;99884.63;;;18.61;44.88
46710;BME280;32442;51.514;-0.178;2023-03-25T07:04:48;99889.38;;;18.61;44.79
46710;BME280;32442;51.514;-0.178;2023-03-25T07:07:16;99896.41;;;18.58;45.00
46710;BME280;32442;51.514;-0.178;2023-03-25T07:09:44;99892.19;;;18.61;44.79
46710;BME280;32442;51.514;-0.178;2023-03-25T07:12:12;99898.38;;;18.58;45.14
46710;BME280;32442;51.514;-0.178;2023-03-25T07:14:39;99899.75;;;18.60;44.93
46710;BME280;32442;51.514;-0.178;2023-03-25T07:17:10;99907.63;;;18.58;44.89
46710;BME280;32442;51.514;-0.178;2023-03-25T07:19:41;99897.06;;;18.55;44.72
46710;BME280;32442;51.514;-0.178;2023-03-25T07:22:09;99891.28;;;18.52;44.75
46710;BME280;32442;51.514;-0.178;2023-03-25T07:24:37;99907.75;;;18.53;45.07
46710;BME280;32442;51.514;-0.178;2023-03-25T07:27:09;99906.28;;;18.56;44.72
46710;BME280;32442;51.514;-0.178;2023-03-25T07:29:39;99897.91;;;18.56;45.07
46710;BME280;32442;51.514;-0.178;2023-03-25T07:32:09;99906.41;;;18.51;45.12
46710;BME280;32442;51.514;-0.178;2023-03-25T07:34:37;99896.88;;;18.52;44.92
46710;BME280;32442;51.514;-0.178;2023-03-25T07:37:05;99903.59;;;18.51;44.95
46710;BME280;32442;51.514;-0.178;2023-03-25T07:39:34;99894.06;;;18.52;44.90
46710;BME280;32442;51.514;-0.178;2023-03-25T07:42:01;99906.41;;;18.51;45.03
46710;BME280;32442;51.514;-0.178;2023-03-25T07:44:30;99912.28;;;18.49;45.09
46710;BME280;32442;51.514;-0.178;2023-03-25T07:46:58;99931.03;;;18.49;44.96
46710;BME280;32442;51.514;-0.178;2023-03-25T07:49:28;99927.25;;;18.45;45.15
46710;BME280;32442;51.514;-0.178;2023-03-25T07:51:56;99912.94;;;18.46;45.15
46710;BME280;32442;51.514;-0.178;2023-03-25T07:54:26;99928.72;;;18.42;45.45
46710;BME280;32442;51.514;-0.178;2023-03-25T07:56:56;99938.44;;;18.45;45.07
46710;BME280;32442;51.514;-0.178;2023-03-25T07:59:25;99925.09;;;18.42;45.21
46710;BME280;32442;51.514;-0.178;2023-03-25T08:01:54;99946.50;;;18.46;45.02
46710;BME280;32442;51.514;-0.178;2023-03-25T08:04:22;99943.19;;;18.44;45.19
46710;BME280;32442;51.514;-0.178;2023-03-25T08:06:53;99937.59;;;18.44;45.45
46710;BME280;32442;51.514;-0.178;2023-03-25T08:09:22;99968.38;;;18.44;45.50
46710;BME280;32442;51.514;-0.178;2023-03-25T08:11:50;99952.75;;;18.43;45.20
46710;BME280;32442;51.514;-0.178;2023-03-25T08:14:19;99947.16;;;18.43;45.28
46710;BME280;32442;51.514;-0.178;2023-03-25T08:16:46;99966.75;;;18.43;45.17
46710;BME280;32442;51.514;-0.178;2023-03-25T08:19:15;99979.25;;;18.46;44.91
46710;BME280;32442;51.514;-0.178;2023-03-25T08:21:48;99963.72;;;18.40;45.32
46710;BME280;32442;51.514;-0.178;2023-03-25T08:24:15;99975.44;;;18.42;45.33
46710;BME280;32442;51.514;-0.178;2023-03-25T08:26:44;99989.41;;;18.42;45.44
46710;BME280;32442;51.514;-0.178;2023-03-25T08:29:12;99984.47;;;18.39;45.42
46710;BME280;32442;51.514;-0.178;2023-03-25T08:31:42;99996.97;;;18.41;45.45
46710;BME280;32442;51.514;-0.178;2023-03-25T08:34:15;100002.88;;;18.40;45.11
46710;BME280;32442;51.514;-0.178;2023-03-25T08:36:54;100003.22;;;18.38;45.09
46710;BME280;32442;51.514;-0.178;2023-03-25T08:39:23;100017.81;;;18.35;45.31
46710;BME280;32442;51.514;-0.178;2023-03-25T08:41:59;100000.72;;;18.37;45.57
46710;BME280;32442;51.514;-0.178;2023-03-25T08:44:27;100008.47;;;18.40;45.65
46710;BME280;32442;51.514;-0.178;2023-03-25T08:46:54;100011.59;;;18.38;45.55
46710;BME280;32442;51.514;-0.178;2023-03-25T08:49:24;100022.47;;;18.40;45.59
46710;BME280;32442;51.514;-0.178;2023-03-25T08:51:51;100031.38;;;18.42;45.58
46710;BME280;32442;51.514;-0.178;2023-03-25T08:54:35;100028.03;;;18.40;45.24
46710;BME280;32442;51.514;-0.178;2023-03-25T08:57:03;100030.84;;;18.40;45.24
46710;BME280;32442;51.514;-0.178;2023-03-25T08:59:31;100033.16;;;18.38;45.42
46710;BME280;32442;51.514;-0.178;2023-03-25T09:02:02;100048.25;;;18.37;45.52
46710;BME280;32442;51.514;-0.178;2023-03-25T09:04:31;100049.41;;;18.36;45.38
46710;BME280;32442;51.514;-0.178;2023-03-25T09:06:58;100041.84;;;18.36;45.81
46710;BME280;32442;51.514;-0.178;2023-03-25T09:09:37;100055.00;;;18.36;45.76
46710;BME280;32442;51.514;-0.178;2023-03-25T09:12:05;100046.59;;;18.36;45.53
46710;BME280;32442;51.514;-0.178;2023-03-25T09:14:33;100061.94;;;18.38;45.48
46710;BME280;32442;51.514;-0.178;2023-03-25T09:17:01;100053.03;;;18.36;45.96
46710;BME280;32442;51.514;-0.178;2023-03-25T09:19:32;100064.22;;;18.36;45.79
46710;BME280;32442;51.514;-0.178;2023-03-25T09:22:02;100076.22;;;18.37;45.88
46710;BME280;32442;51.514;-0.178;2023-03-25T09:24:30;100065.56;;;18.39;45.75
46710;BME280;32442;51.514;-0.178;2023-03-25T09:27:00;100061.75;;;18.35;45.70
46710;BME280;32442;51.514;-0.178;2023-03-25T09:29:31;100084.13;;;18.35;45.51
46710;BME280;32442;51.514;-0.178;2023-03-25T09:32:01;100072.59;;;18.36;45.14
46710;BME280;32442;51.514;-0.178;2023-03-25T09:34:30;100081.44;;;18.30;45.53
46710;BME280;32442;51.514;-0.178;2023-03-25T09:37:00;100075.22;;;18.33;45.45
46710;BME280;32442;51.514;-0.178;2023-03-25T09:39:33;100091.69;;;18.34;45.19
46710;BME280;32442;51.514;-0.178;2023-03-25T09:47:06;100093.66;;;18.34;45.20
46710;BME280;32442;51.514;-0.178;2023-03-25T09:49:43;100090.31;;;18.32;45.22
46710;BME280;32442;51.514;-0.178;2023-03-25T09:54:58;100113.53;;;18.32;45.79
46710;BME280;32442;51.514;-0.178;2023-03-25T09:57:29;100116.03;;;18.34;45.44
46710;BME280;32442;51.514;-0.178;2023-03-25T10:00:02;100124.06;;;18.35;44.29
46710;BME280;32442;51.514;-0.178;2023-03-25T10:15:31;100143.78;;;18.30;43.68
46710;BME280;32442;51.514;-0.178;2023-03-25T10:20:50;100146.88;;;18.42;43.58
46710;BME280;32442;51.514;-0.178;2023-03-25T10:23:27;100156.81;;;18.48;43.73
46710;BME280;32442;51.514;-0.178;2023-03-25T10:25:58;100157.53;;;18.54;43.57
46710;BME280;32442;51.514;-0.178;2023-03-25T10:28:37;100162.19;;;18.58;43.47
46710;BME280;32442;51.514;-0.178;2023-03-25T10:31:12;100172.97;;;18.65;43.30
46710;BME280;32442;51.514;-0.178;2023-03-25T10:33:48;100189.28;;;18.72;43.73
46710;BME280;32442;51.514;-0.178;2023-03-25T10:36:27;100178.31;;;18.75;43.64
46710;BME280;32442;51.514;-0.178;2023-03-25T10:39:12;100177.88;;;18.82;43.72
46710;BME280;32442;51.514;-0.178;2023-03-25T10:44:40;100185.41;;;18.95;43.33
46710;BME280;32442;51.514;-0.178;2023-03-25T10:47:13;100200.09;;;19.00;43.31
46710;BME280;32442;51.514;-0.178;2023-03-25T10:49:42;100196.06;;;19.06;43.31
46710;BME280;32442;51.514;-0.178;2023-03-25T10:52:11;100205.16;;;19.12;43.38
46710;BME280;32442;51.514;-0.178;2023-03-25T10:54:40;100203.88;;;19.18;43.23
46710;BME280;32442;51.514;-0.178;2023-03-25T10:57:14;100209.03;;;19.25;43.23
46710;BME280;32442;51.514;-0.178;2023-03-25T11:02:22;100214.59;;;19.38;43.06
46710;BME280;32442;51.514;-0.178;2023-03-25T11:12:41;100232.44;;;19.65;42.52
46710;BME280;32442;51.514;-0.178;2023-03-25T11:15:13;100242.69;;;19.69;42.30
46710;BME280;32442;51.514;-0.178;2023-03-25T11:17:59;100244.22;;;19.75;42.22
46710;BME280;32442;51.514;-0.178;2023-03-25T11:20:48;100246.72;;;19.85;42.36
46710;BME280;32442;51.514;-0.178;2023-03-25T11:25:45;100250.59;;;19.98;42.29
46710;BME280;32442;51.514;-0.178;2023-03-25T11:33:13;100261.59;;;20.17;42.08
46710;BME280;32442;51.514;-0.178;2023-03-25T11:35:41;100267.03;;;20.22;42.00
46710;BME280;32442;51.514;-0.178;2023-03-25T11:38:13;100268.56;;;20.28;42.13
46710;BME280;32442;51.514;-0.178;2023-03-25T11:40:48;100260.88;;;20.33;42.00
46710;BME280;32442;51.514;-0.178;2023-03-25T11:43:18;100260.38;;;20.40;41.84
46710;BME280;32442;51.514;-0.178;2023-03-25T11:45:46;100266.69;;;20.46;42.04
46710;BME280;32442;51.514;-0.178;2023-03-25T11:48:17;100252.50;;;20.51;41.68
46710;BME280;32442;51.514;-0.178;2023-03-25T11:53:19;100257.00;;;20.60;41.51
46710;BME280;32442;51.514;-0.178;2023-03-25T11:55:48;100259.66;;;20.65;41.43
46710;BME280;32442;51.514;-0.178;2023-03-25T11:58:18;100264.28;;;20.70;41.15
46710;BME280;32442;51.514;-0.178;2023-03-25T12:00:47;100265.28;;;20.74;41.53
46710;BME280;32442;51.514;-0.178;2023-03-25T12:08:19;100269.78;;;20.83;40.97
46710;BME280;32442;51.514;-0.178;2023-03-25T12:13:26;100270.09;;;20.91;40.67
46710;BME280;32442;51.514;-0.178;2023-03-25T12:33:32;100270.47;;;21.06;39.92
46710;BME280;32442;51.514;-0.178;2023-03-25T13:05:58;100279.44;;;21.34;38.93
46710;BME280;32442;51.514;-0.178;2023-03-25T13:08:29;100286.06;;;21.38;39.05
46710;BME280;32442;51.514;-0.178;2023-03-25T13:11:00;100275.31;;;21.40;39.38
46710;BME280;32442;51.514;-0.178;2023-03-25T13:13:29;100281.91;;;21.44;39.14
46710;BME280;32442;51.514;-0.178;2023-03-25T13:18:30;100283.41;;;21.50;38.56
46710;BME280;32442;51.514;-0.178;2023-03-25T13:23:32;100281.09;;;21.52;38.92
46710;BME280;32442;51.514;-0.178;2023-03-25T13:26:01;100296.97;;;21.57;39.14
46710;BME280;32442;51.514;-0.178;2023-03-25T13:28:34;100302.75;;;21.60;39.05
46710;BME280;32442;51.514;-0.178;2023-03-25T13:31:05;100320.09;;;21.62;39.15
46710;BME280;32442;51.514;-0.178;2023-03-25T13:33:35;100302.59;;;21.65;39.04
46710;BME280;32442;51.514;-0.178;2023-03-25T13:38:33;100308.84;;;21.62;38.92
46710;BME280;32442;51.514;-0.178;2023-03-25T13:43:35;100304.25;;;21.66;38.61
46710;BME280;32442;51.514;-0.178;2023-03-25T13:46:05;100310.34;;;21.68;38.67
46710;BME280;32442;51.514;-0.178;2023-03-25T13:51:04;100311.16;;;21.86;39.59
46710;BME280;32442;51.514;-0.178;2023-03-25T14:13:29;100277.09;;;21.88;37.98
46710;BME280;32442;51.514;-0.178;2023-03-25T14:16:00;100296.94;;;21.83;38.09
46710;BME280;32442;51.514;-0.178;2023-03-25T14:18:29;100298.78;;;21.79;38.34
46710;BME280;32442;51.514;-0.178;2023-03-25T14:21:10;100318.78;;;21.77;38.23
46710;BME280;32442;51.514;-0.178;2023-03-25T14:23:39;100317.31;;;21.71;37.72
46710;BME280;32442;51.514;-0.178;2023-03-25T14:26:09;100325.75;;;21.71;37.75
46710;BME280;32442;51.514;-0.178;2023-03-25T14:36:09;100322.44;;;21.60;37.98
46710;BME280;32442;51.514;-0.178;2023-03-25T14:41:06;100315.00;;;21.56;37.56
46710;BME280;32442;51.514;-0.178;2023-03-25T14:43:36;100317.28;;;21.54;38.05
46710;BME280;32442;51.514;-0.178;2023-03-25T14:48:36;100330.34;;;21.50;38.08
46710;BME280;32442;51.514;-0.178;2023-03-25T14:53:46;100324.56;;;21.46;37.70
46710;BME280;32442;51.514;-0.178;2023-03-25T14:56:16;100332.19;;;21.46;38.15
46710;BME280;32442;51.514;-0.178;2023-03-25T14:58:45;100326.72;;;21.41;38.12
46710;BME280;32442;51.514;-0.178;2023-03-25T15:01:16;100321.09;;;21.41;38.31
46710;BME280;32442;51.514;-0.178;2023-03-25T15:03:45;100329.88;;;21.39;37.97
46710;BME280;32442;51.514;-0.178;2023-03-25T15:06:15;100332.19;;;21.37;37.98
46710;BME280;32442;51.514;-0.178;2023-03-25T15:11:14;100334.97;;;21.28;38.09
46710;BME280;32442;51.514;-0.178;2023-03-25T15:13:43;100317.97;;;21.25;38.50
46710;BME280;32442;51.514;-0.178;2023-03-25T15:21:13;100331.16;;;21.16;38.32
46710;BME280;32442;51.514;-0.178;2023-03-25T15:26:12;100338.06;;;21.10;38.01
46710;BME280;32442;51.514;-0.178;2023-03-25T15:31:11;100336.88;;;21.02;38.45
46710;BME280;32442;51.514;-0.178;2023-03-25T15:38:45;100351.72;;;20.94;38.50
46710;BME280;32442;51.514;-0.178;2023-03-25T15:41:20;100378.31;;;20.88;38.49
46710;BME280;32442;51.514;-0.178;2023-03-25T15:53:58;100382.38;;;20.73;38.58
46710;BME280;32442;51.514;-0.178;2023-03-25T15:56:31;100365.84;;;20.72;38.48
46710;BME280;32442;51.514;-0.178;2023-03-25T15:59:04;100378.03;;;20.67;38.30
46710;BME280;32442;51.514;-0.178;2023-03-25T16:01:33;100371.09;;;20.65;38.67
46710;BME280;32442;51.514;-0.178;2023-03-25T16:06:29;100370.41;;;20.59;38.49
46710;BME280;32442;51.514;-0.178;2023-03-25T16:08:57;100385.59;;;20.58;38.27
46710;BME280;32442;51.514;-0.178;2023-03-25T16:11:27;100385.94;;;20.57;38.12
46710;BME280;32442;51.514;-0.178;2023-03-25T16:16:24;100394.66;;;20.55;38.34
46710;BME280;32442;51.514;-0.178;2023-03-25T16:18:53;100395.63;;;20.51;38.51
46710;BME280;32442;51.514;-0.178;2023-03-25T16:21:21;100385.38;;;20.46;38.09
46710;BME280;32442;51.514;-0.178;2023-03-25T16:23:51;100402.50;;;20.45;38.44
46710;BME280;32442;51.514;-0.178;2023-03-25T16:28:49;100393.09;;;20.40;38.59
46710;BME280;32442;51.514;-0.178;2023-03-25T16:33:46;100398.38;;;20.42;38.70
46710;BME280;32442;51.514;-0.178;2023-03-25T16:36:15;100404.66;;;20.39;38.79
46710;BME280;32442;51.514;-0.178;2023-03-25T16:38:43;100404.44;;;20.35;38.42
46710;BME280;32442;51.514;-0.178;2023-03-25T16:41:11;100404.25;;;20.32;38.54
46710;BME280;32442;51.514;-0.178;2023-03-25T16:43:39;100395.34;;;20.30;38.62
46710;BME280;32442;51.514;-0.178;2023-03-25T16:46:07;100405.19;;;20.27;39.03
46710;BME280;32442;51.514;-0.178;2023-03-25T16:48:36;100406.31;;;20.26;38.97
46710;BME280;32442;51.514;-0.178;2023-03-25T16:53:36;100392.13;;;20.23;39.11
46710;BME280;32442;51.514;-0.178;2023-03-25T16:58:36;100400.34;;;20.19;39.22
46710;BME280;32442;51.514;-0.178;2023-03-25T17:01:14;100400.66;;;20.18;39.03
46710;BME280;32442;51.514;-0.178;2023-03-25T17:03:43;100401.31;;;20.15;39.45
46710;BME280;32442;51.514;-0.178;2023-03-25T17:08:40;100398.81;;;20.13;39.03
46710;BME280;32442;51.514;-0.178;2023-03-25T17:11:07;100389.06;;;20.11;39.22
46710;BME280;32442;51.514;-0.178;2023-03-25T17:16:05;100392.53;;;20.08;39.44
46710;BME280;32442;51.514;-0.178;2023-03-25T17:18:33;100388.06;;;20.07;39.42
46710;BME280;32442;51.514;-0.178;2023-03-25T17:21:02;100386.41;;;20.06;39.50